createdAt,value
2023-04-15T00:01:45.129Z,8.50
2023-04-15T00:04:12.369Z,8.50
2023-04-15T00:06:40.101Z,8.51
2023-04-15T00:09:07.240Z,8.51
2023-04-15T00:11:34.811Z,8.40
2023-04-15T00:14:02.185Z,8.35
2023-04-15T00:16:29.493Z,8.38
2023-04-15T00:18:56.909Z,8.38
2023-04-15T00:21:24.133Z,8.43
2023-04-15T00:23:53.732Z,8.35
2023-04-15T00:26:21.052Z,8.36
2023-04-15T00:28:48.133Z,8.38
2023-04-15T00:31:15.627Z,8.35
2023-04-15T00:33:42.635Z,8.33
2023-04-15T00:36:11.329Z,8.34
2023-04-15T00:38:38.701Z,8.34
2023-04-15T00:41:05.969Z,8.32
2023-04-15T00:43:32.875Z,8.17
2023-04-15T00:46:03.842Z,8.24
2023-04-15T00:48:32.334Z,8.27
2023-04-15T00:50:59.954Z,8.29
2023-04-15T00:53:26.902Z,8.25
2023-04-15T00:55:54.700Z,8.29
2023-04-15T00:58:21.836Z,8.27
2023-04-15T01:00:49.345Z,8.27
2023-04-15T01:03:16.552Z,8.32
2023-04-15T01:05:43.812Z,8.31
2023-04-15T01:08:10.901Z,8.30
2023-04-15T01:10:39.530Z,8.29
2023-04-15T01:13:06.905Z,8.29
2023-04-15T01:15:36.644Z,8.29
2023-04-15T01:18:03.827Z,8.32
2023-04-15T01:20:31.189Z,8.25
2023-04-15T01:22:58.962Z,8.21
2023-04-15T01:25:34.908Z,8.20
2023-04-15T01:28:02.301Z,8.26
2023-04-15T01:30:29.964Z,8.27
2023-04-15T01:32:57.098Z,8.28
2023-04-15T01:35:24.773Z,8.31
2023-04-15T01:37:52.608Z,8.23
2023-04-15T01:40:20.544Z,8.32
2023-04-15T01:42:47.623Z,8.32
2023-04-15T01:45:15.129Z,8.36
2023-04-15T01:47:42.212Z,8.38
2023-04-15T01:50:10.206Z,8.43
2023-04-15T01:52:37.559Z,8.45
2023-04-15T01:55:06.335Z,8.41
2023-04-15T01:57:33.194Z,8.36
2023-04-15T02:00:00.444Z,8.38
2023-04-15T02:02:27.697Z,8.36
2023-04-15T02:04:55.707Z,8.37
2023-04-15T02:07:22.822Z,8.37
2023-04-15T02:09:49.991Z,8.37
2023-04-15T02:12:17.040Z,8.36
2023-04-15T02:14:44.222Z,8.33
2023-04-15T02:17:11.739Z,8.28
2023-04-15T02:19:40.477Z,8.24
2023-04-15T02:22:09.324Z,8.25
2023-04-15T02:24:36.684Z,8.23
2023-04-15T02:27:03.743Z,8.21
2023-04-15T02:29:32.935Z,8.23
2023-04-15T02:31:59.905Z,8.27
2023-04-15T02:34:27.404Z,8.29
2023-04-15T02:36:57.380Z,8.29
2023-04-15T02:39:24.701Z,8.32
2023-04-15T02:41:52.520Z,8.31
2023-04-15T02:44:20.554Z,8.31
2023-04-15T02:46:52.568Z,8.30
2023-04-15T02:49:19.917Z,8.26
2023-04-15T02:51:51.313Z,8.26
2023-04-15T02:54:23.377Z,8.27
2023-04-15T02:56:50.835Z,8.28
2023-04-15T02:59:18.025Z,8.27
2023-04-15T03:01:45.080Z,8.28
2023-04-15T03:04:13.643Z,8.25
2023-04-15T03:06:40.849Z,8.31
2023-04-15T03:09:08.395Z,8.30
2023-04-15T03:11:40.529Z,8.35
2023-04-15T03:14:07.846Z,8.30
2023-04-15T03:16:34.903Z,8.31
2023-04-15T03:19:02.288Z,8.30
2023-04-15T03:21:29.345Z,8.32
2023-04-15T03:23:57.370Z,8.33
2023-04-15T03:26:29.694Z,8.31
2023-04-15T03:28:57.438Z,8.36
2023-04-15T03:31:57.063Z,8.39
2023-04-15T03:34:24.359Z,8.33
2023-04-15T03:36:51.341Z,8.32
2023-04-15T03:39:18.561Z,8.35
2023-04-15T03:41:45.817Z,8.32
2023-04-15T03:44:13.052Z,8.35
2023-04-15T03:46:40.048Z,8.38
2023-04-15T03:49:07.624Z,8.45
2023-04-15T03:51:34.820Z,8.50
2023-04-15T03:54:02.340Z,8.53
2023-04-15T03:56:29.230Z,8.58
2023-04-15T03:58:56.622Z,8.63
2023-04-15T04:01:23.630Z,8.63
2023-04-15T04:03:51.042Z,8.67
2023-04-15T04:06:18.162Z,8.61
2023-04-15T04:08:45.407Z,8.18
2023-04-15T04:11:12.670Z,8.05
2023-04-15T04:13:41.178Z,7.84
2023-04-15T04:16:10.205Z,7.81
2023-04-15T04:18:40.000Z,7.79
2023-04-15T04:21:09.770Z,7.44
2023-04-15T04:23:39.689Z,7.41
2023-04-15T04:26:08.974Z,7.22
2023-04-15T04:28:40.001Z,7.12
2023-04-15T04:31:08.364Z,7.21
2023-04-15T04:33:37.684Z,7.17
2023-04-15T04:36:07.607Z,6.84
2023-04-15T04:38:37.441Z,6.78
2023-04-15T04:41:06.899Z,6.72
2023-04-15T04:43:36.634Z,6.98
2023-04-15T04:46:06.475Z,7.04
2023-04-15T04:48:37.462Z,7.13
2023-04-15T04:51:05.654Z,7.20
2023-04-15T04:53:34.806Z,7.19
2023-04-15T04:56:03.716Z,7.25
2023-04-15T04:58:33.172Z,7.26
2023-04-15T05:01:03.777Z,7.32
2023-04-15T05:03:33.287Z,7.35
2023-04-15T05:06:06.624Z,7.36
2023-04-15T05:08:34.890Z,7.34
2023-04-15T05:11:05.218Z,7.36
2023-04-15T05:13:35.853Z,7.38
2023-04-15T05:16:04.318Z,7.28
2023-04-15T05:18:37.367Z,7.28
2023-04-15T05:21:06.050Z,7.22
2023-04-15T05:23:36.602Z,7.26
2023-04-15T05:26:05.458Z,7.30
2023-04-15T05:28:35.281Z,7.28
2023-04-15T05:31:04.595Z,7.39
2023-04-15T05:33:34.233Z,7.46
2023-04-15T05:36:02.738Z,7.47
2023-04-15T05:38:31.948Z,7.53
2023-04-15T05:41:00.677Z,7.52
2023-04-15T05:43:29.190Z,7.52
2023-04-15T05:45:57.500Z,7.54
2023-04-15T05:48:25.201Z,7.55
2023-04-15T05:50:52.169Z,7.56
2023-04-15T05:53:19.430Z,7.59
2023-04-15T05:55:46.882Z,7.55
2023-04-15T05:58:14.011Z,7.61
2023-04-15T06:00:40.970Z,7.68
2023-04-15T06:03:08.325Z,7.64
2023-04-15T06:05:35.723Z,7.69
2023-04-15T06:08:03.053Z,7.79
2023-04-15T06:10:30.890Z,7.81
2023-04-15T06:12:58.118Z,7.85
2023-04-15T06:15:25.021Z,7.88
2023-04-15T06:17:52.501Z,7.91
2023-04-15T06:20:19.534Z,7.87
2023-04-15T06:22:46.935Z,7.98
2023-04-15T06:25:14.210Z,7.89
2023-04-15T06:27:41.555Z,7.90
2023-04-15T06:30:09.353Z,8.05
2023-04-15T06:32:36.792Z,8.06
2023-04-15T06:35:04.131Z,8.10
2023-04-15T06:37:32.700Z,8.12
2023-04-15T06:39:59.752Z,8.18
2023-04-15T06:42:27.070Z,8.09
2023-04-15T06:44:54.009Z,8.21
2023-04-15T06:47:21.741Z,8.21
2023-04-15T06:49:48.766Z,8.27
2023-04-15T06:52:16.797Z,8.27
2023-04-15T06:54:43.818Z,7.96
2023-04-15T06:57:11.314Z,7.89
2023-04-15T06:59:38.321Z,7.87
2023-04-15T07:02:06.271Z,7.73
2023-04-15T07:04:33.682Z,7.81
2023-04-15T07:07:02.643Z,8.04
2023-04-15T07:09:29.831Z,8.15
2023-04-15T07:11:57.512Z,8.29
2023-04-15T07:14:24.421Z,8.33
2023-04-15T07:16:51.819Z,8.38
2023-04-15T07:19:18.812Z,8.43
2023-04-15T07:21:47.644Z,8.30
2023-04-15T07:24:18.202Z,8.60
2023-04-15T07:26:45.832Z,8.68
2023-04-15T07:29:12.792Z,8.27
2023-04-15T07:31:42.389Z,8.42
2023-04-15T07:34:09.367Z,8.35
2023-04-15T07:36:37.561Z,8.20
2023-04-15T07:39:04.609Z,8.25
2023-04-15T07:41:32.213Z,8.48
2023-04-15T07:43:59.597Z,8.19
2023-04-15T07:46:27.594Z,8.11
2023-04-15T07:48:54.632Z,8.22
2023-04-15T07:51:22.416Z,8.32
2023-04-15T07:53:50.477Z,8.56
2023-04-15T07:56:18.008Z,8.56
2023-04-15T07:58:45.071Z,8.70
2023-04-15T08:01:12.740Z,8.92
2023-04-15T08:03:40.069Z,8.99
2023-04-15T08:06:08.164Z,9.17
2023-04-15T08:08:35.711Z,9.18
2023-04-15T08:11:03.084Z,9.30
2023-04-15T08:13:30.180Z,9.27
2023-04-15T08:16:27.898Z,9.12
2023-04-15T08:18:56.860Z,9.25
2023-04-15T08:21:25.054Z,9.20
2023-04-15T08:23:54.579Z,9.25
2023-04-15T08:26:22.230Z,9.35
2023-04-15T08:28:49.974Z,9.40
2023-04-15T08:31:19.171Z,9.46
2023-04-15T08:33:46.848Z,9.42
2023-04-15T08:36:14.195Z,9.55
2023-04-15T08:38:41.907Z,9.75
2023-04-15T08:41:25.408Z,9.86
2023-04-15T08:44:05.302Z,9.70
2023-04-15T08:46:37.375Z,9.67
2023-04-15T08:49:05.840Z,9.57
2023-04-15T08:51:34.011Z,9.64
2023-04-15T08:54:02.625Z,9.68
2023-04-15T08:56:33.312Z,9.75
2023-04-15T08:59:01.262Z,9.65
2023-04-15T09:01:29.460Z,9.83
2023-04-15T09:03:57.704Z,9.85
2023-04-15T09:06:26.179Z,9.81
2023-04-15T09:08:53.434Z,9.82
2023-04-15T09:11:22.553Z,10.02
2023-04-15T09:13:50.108Z,10.17
2023-04-15T09:16:17.522Z,10.07
2023-04-15T09:18:48.040Z,10.17
2023-04-15T09:21:17.758Z,10.01
2023-04-15T09:24:00.498Z,10.19
2023-04-15T09:26:37.424Z,9.97
2023-04-15T09:29:10.509Z,9.84
2023-04-15T09:31:37.989Z,10.04
2023-04-15T09:34:06.313Z,10.11
2023-04-15T09:36:51.838Z,10.07
2023-04-15T09:39:19.017Z,10.04
2023-04-15T09:41:48.810Z,9.91
2023-04-15T09:44:27.172Z,9.92
2023-04-15T09:46:54.540Z,9.99
2023-04-15T09:49:21.703Z,9.92
2023-04-15T09:52:03.935Z,10.00
2023-04-15T09:54:39.329Z,10.11
2023-04-15T09:57:10.433Z,10.14
2023-04-15T09:59:37.679Z,10.26
2023-04-15T10:02:08.896Z,10.35
2023-04-15T10:04:41.651Z,10.36
2023-04-15T10:07:10.010Z,10.47
2023-04-15T10:09:39.017Z,10.55
2023-04-15T10:12:06.721Z,10.53
2023-04-15T10:14:38.831Z,10.47
2023-04-15T10:17:11.282Z,10.62
2023-04-15T10:19:38.945Z,10.64
2023-04-15T10:22:08.142Z,10.49
2023-04-15T10:24:35.429Z,10.51
2023-04-15T10:27:05.492Z,10.51
2023-04-15T10:29:33.215Z,10.64
2023-04-15T10:32:02.654Z,10.59
2023-04-15T10:34:31.497Z,10.63
2023-04-15T10:37:03.935Z,10.76
2023-04-15T10:39:37.408Z,10.79
2023-04-15T10:42:19.507Z,10.75
2023-04-15T10:44:52.314Z,10.75
2023-04-15T10:47:22.049Z,10.81
2023-04-15T10:49:58.111Z,10.87
2023-04-15T10:52:28.879Z,10.84
2023-04-15T10:55:11.355Z,10.87
2023-04-15T10:57:40.996Z,10.92
2023-04-15T11:00:13.117Z,10.93
2023-04-15T11:02:56.611Z,10.93
2023-04-15T11:05:52.350Z,10.94
2023-04-15T11:08:21.300Z,10.89
2023-04-15T11:10:48.160Z,10.94
2023-04-15T11:13:22.791Z,10.91
2023-04-15T11:15:50.250Z,10.89
2023-04-15T11:18:22.730Z,10.98
2023-04-15T11:21:01.870Z,11.04
2023-04-15T11:23:46.878Z,11.09
2023-04-15T11:26:14.193Z,11.09
2023-04-15T11:28:46.340Z,10.92
2023-04-15T11:31:20.045Z,10.82
2023-04-15T11:34:01.728Z,10.74
2023-04-15T11:36:32.296Z,10.81
2023-04-15T11:39:00.776Z,10.85
2023-04-15T11:41:28.613Z,10.96
2023-04-15T11:43:56.587Z,10.85
2023-04-15T11:46:32.247Z,10.99
2023-04-15T11:49:01.910Z,10.94
2023-04-15T11:51:34.938Z,11.09
2023-04-15T11:54:03.004Z,11.16
2023-04-15T11:56:30.229Z,11.22
2023-04-15T11:58:59.881Z,11.18
2023-04-15T12:01:44.056Z,11.13
2023-04-15T12:04:25.566Z,11.06
2023-04-15T12:06:53.567Z,10.93
2023-04-15T12:09:21.938Z,10.99
2023-04-15T12:11:57.704Z,11.02
2023-04-15T12:14:33.257Z,11.00
2023-04-15T12:17:02.366Z,10.95
2023-04-15T12:19:34.933Z,10.95
2023-04-15T12:22:09.521Z,10.85
2023-04-15T12:24:38.376Z,10.86
2023-04-15T12:27:12.168Z,10.97
2023-04-15T12:29:43.280Z,10.97
2023-04-15T12:32:16.290Z,10.90
2023-04-15T12:34:51.255Z,10.93
2023-04-15T12:37:19.624Z,10.95
2023-04-15T12:39:50.650Z,11.05
2023-04-15T12:42:18.801Z,11.00
2023-04-15T12:44:47.097Z,10.97
2023-04-15T12:47:14.887Z,11.01
2023-04-15T12:49:42.439Z,11.00
2023-04-15T12:52:09.751Z,10.96
2023-04-15T12:54:37.523Z,10.92
2023-04-15T12:57:07.241Z,10.91
2023-04-15T12:59:39.441Z,11.00
2023-04-15T13:02:06.683Z,11.04
2023-04-15T13:04:34.201Z,11.19
2023-04-15T13:07:02.945Z,11.30
2023-04-15T13:09:31.265Z,11.30
2023-04-15T13:11:58.431Z,11.36
2023-04-15T13:14:25.792Z,11.35
2023-04-15T13:16:53.856Z,11.40
2023-04-15T13:19:21.418Z,11.38
2023-04-15T13:21:48.633Z,11.40
2023-04-15T13:24:16.020Z,11.43
2023-04-15T13:26:43.099Z,11.35
2023-04-15T13:29:11.642Z,11.44
2023-04-15T13:31:38.741Z,11.46
2023-04-15T13:34:06.296Z,11.58
2023-04-15T13:36:33.511Z,11.67
2023-04-15T13:39:01.115Z,11.72
2023-04-15T13:41:28.132Z,11.81
2023-04-15T13:43:55.777Z,11.87
2023-04-15T13:46:22.873Z,11.94
2023-04-15T13:48:50.329Z,12.00
2023-04-15T13:51:17.261Z,11.96
2023-04-15T13:53:44.521Z,12.01
2023-04-15T13:56:11.522Z,12.06
2023-04-15T13:58:38.996Z,12.08
2023-04-15T14:01:07.437Z,11.84
2023-04-15T14:03:36.842Z,12.02
2023-04-15T14:06:08.494Z,12.15
2023-04-15T14:08:36.029Z,12.33
2023-04-15T14:11:03.069Z,12.47
2023-04-15T14:13:31.543Z,12.59
2023-04-15T14:15:58.666Z,12.65
2023-04-15T14:18:26.205Z,12.61
2023-04-15T14:20:53.824Z,12.56
2023-04-15T14:23:21.958Z,12.60
2023-04-15T14:25:49.309Z,12.51
2023-04-15T14:28:16.973Z,12.52
2023-04-15T14:30:44.148Z,12.43
2023-04-15T14:33:12.033Z,12.38
2023-04-15T14:35:39.659Z,12.38
2023-04-15T14:38:10.938Z,12.38
2023-04-15T14:40:38.744Z,12.36
2023-04-15T14:43:06.247Z,12.37
2023-04-15T14:45:33.660Z,12.31
2023-04-15T14:48:01.623Z,12.31
2023-04-15T14:50:28.809Z,12.33
2023-04-15T14:52:56.168Z,12.38
2023-04-15T14:55:23.164Z,12.33
2023-04-15T14:57:50.691Z,12.24
2023-04-15T15:00:17.825Z,12.24
2023-04-15T15:02:49.587Z,12.32
2023-04-15T15:05:16.845Z,12.39
2023-04-15T15:07:44.263Z,12.46
2023-04-15T15:10:11.291Z,12.52
2023-04-15T15:12:38.621Z,12.52
2023-04-15T15:15:15.717Z,12.52
2023-04-15T15:17:54.596Z,12.57
2023-04-15T15:20:22.191Z,12.46
2023-04-15T15:22:49.910Z,12.39
2023-04-15T15:25:17.158Z,12.35
2023-04-15T15:27:44.618Z,12.29
2023-04-15T15:30:12.835Z,12.22
2023-04-15T15:32:41.941Z,12.17
2023-04-15T15:35:10.503Z,12.16
2023-04-15T15:37:38.758Z,12.09
2023-04-15T15:40:07.471Z,12.05
2023-04-15T15:42:35.720Z,12.00
2023-04-15T15:45:04.739Z,12.01
2023-04-15T15:47:32.181Z,11.98
2023-04-15T15:50:02.714Z,11.99
2023-04-15T15:52:31.678Z,12.04
2023-04-15T15:54:58.695Z,12.02
2023-04-15T15:57:26.148Z,12.00
2023-04-15T16:00:04.891Z,11.99
2023-04-15T16:03:04.308Z,11.99
2023-04-15T16:05:25.490Z,12.00
2023-04-15T16:07:52.914Z,12.02
2023-04-15T16:10:20.170Z,12.01
2023-04-15T16:12:47.508Z,12.00
2023-04-15T16:15:14.691Z,11.96
2023-04-15T16:17:42.095Z,12.02
2023-04-15T16:20:09.989Z,12.01
2023-04-15T16:22:37.779Z,11.96
2023-04-15T16:25:05.170Z,11.91
2023-04-15T16:27:33.798Z,11.91
2023-04-15T16:30:02.858Z,11.90
2023-04-15T16:32:30.787Z,11.88
2023-04-15T16:34:57.881Z,11.84
2023-04-15T16:37:25.445Z,11.82
2023-04-15T16:39:53.378Z,11.78
2023-04-15T16:42:20.826Z,11.70
2023-04-15T16:44:47.844Z,11.67
2023-04-15T16:47:15.642Z,11.65
2023-04-15T16:49:43.888Z,11.63
2023-04-15T16:52:11.325Z,11.60
2023-04-15T16:54:41.591Z,11.58
2023-04-15T16:57:09.078Z,11.55
2023-04-15T16:59:36.672Z,11.50
2023-04-15T17:02:04.055Z,11.47
2023-04-15T17:04:31.324Z,11.44
2023-04-15T17:06:58.849Z,11.51
2023-04-15T17:09:25.859Z,11.49
2023-04-15T17:11:53.242Z,11.46
2023-04-15T17:14:20.197Z,11.46
2023-04-15T17:16:48.294Z,11.44
2023-04-15T17:19:15.752Z,11.43
2023-04-15T17:21:43.123Z,11.44
2023-04-15T17:24:10.137Z,11.42
2023-04-15T17:26:37.452Z,11.40
2023-04-15T17:29:04.701Z,11.41
2023-04-15T17:31:32.512Z,11.40
2023-04-15T17:34:09.468Z,11.42
2023-04-15T17:36:37.719Z,11.39
2023-04-15T17:39:04.875Z,11.40
2023-04-15T17:41:32.376Z,11.34
2023-04-15T17:43:59.403Z,11.33
2023-04-15T17:46:27.294Z,11.29
2023-04-15T17:48:54.266Z,11.19
2023-04-15T17:51:21.827Z,11.16
2023-04-15T17:53:49.158Z,11.13
2023-04-15T17:56:17.109Z,11.07
2023-04-15T17:58:45.107Z,11.01
2023-04-15T18:01:12.672Z,10.95
2023-04-15T18:03:40.104Z,10.89
2023-04-15T18:06:07.643Z,10.86
2023-04-15T18:08:34.788Z,10.84
2023-04-15T18:11:02.198Z,10.79
2023-04-15T18:13:29.282Z,10.75
2023-04-15T18:15:56.869Z,10.71
2023-04-15T18:18:24.069Z,10.66
2023-04-15T18:20:51.364Z,10.62
2023-04-15T18:23:18.382Z,10.59
2023-04-15T18:25:46.074Z,10.56
2023-04-15T18:28:13.744Z,10.50
2023-04-15T18:30:41.204Z,10.48
2023-04-15T18:33:08.232Z,10.44
2023-04-15T18:35:37.037Z,10.42
2023-04-15T18:38:04.293Z,10.38
2023-04-15T18:40:31.645Z,10.40
2023-04-15T18:42:58.637Z,10.38
2023-04-15T18:45:25.862Z,10.34
2023-04-15T18:47:52.922Z,10.34
2023-04-15T18:50:20.524Z,10.31
2023-04-15T18:52:47.738Z,10.26
2023-04-15T18:55:17.176Z,10.24
2023-04-15T18:57:46.728Z,10.24
2023-04-15T19:00:17.190Z,10.21
2023-04-15T19:02:44.449Z,10.14
2023-04-15T19:05:12.057Z,10.08
2023-04-15T19:07:41.329Z,10.04
2023-04-15T19:10:09.321Z,10.00
2023-04-15T19:12:40.379Z,9.96
2023-04-15T19:15:08.387Z,9.89
2023-04-15T19:17:35.393Z,9.91
2023-04-15T19:20:02.864Z,9.87
2023-04-15T19:22:30.941Z,9.87
2023-04-15T19:24:59.214Z,9.89
2023-04-15T19:27:28.391Z,9.92
2023-04-15T19:29:55.673Z,9.90
2023-04-15T19:32:23.099Z,9.84
2023-04-15T19:34:50.583Z,9.80
2023-04-15T19:37:18.372Z,9.74
2023-04-15T19:39:46.432Z,9.70
2023-04-15T19:42:13.357Z,9.68
2023-04-15T19:44:42.902Z,9.66
2023-04-15T19:47:11.168Z,9.64
2023-04-15T19:49:39.228Z,9.62
2023-04-15T19:52:06.269Z,9.57
2023-04-15T19:54:33.512Z,9.52
2023-04-15T19:57:02.096Z,9.46
2023-04-15T19:59:29.577Z,9.43
2023-04-15T20:01:58.672Z,9.38
2023-04-15T20:04:26.214Z,9.37
2023-04-15T20:06:54.932Z,9.34
2023-04-15T20:09:22.478Z,9.30
2023-04-15T20:12:45.007Z,9.26
2023-04-15T20:14:37.000Z,9.23
2023-04-15T20:17:03.986Z,9.22
2023-04-15T20:19:31.320Z,9.19
2023-04-15T20:21:58.399Z,9.18
2023-04-15T20:24:25.826Z,9.18
2023-04-15T20:26:52.877Z,9.16
2023-04-15T20:29:20.413Z,9.15
2023-04-15T20:31:47.581Z,9.12
2023-04-15T20:34:14.871Z,9.10
2023-04-15T20:36:42.280Z,9.11
2023-04-15T20:39:09.510Z,9.12
2023-04-15T20:41:36.498Z,9.11
2023-04-15T20:44:03.691Z,9.09
2023-04-15T20:46:30.645Z,9.08
2023-04-15T20:48:57.978Z,9.06
2023-04-15T20:51:25.106Z,9.07
2023-04-15T20:53:52.787Z,9.07
2023-04-15T20:56:19.719Z,9.08
2023-04-15T20:58:46.969Z,9.08
2023-04-15T21:01:14.591Z,9.09
2023-04-15T21:03:43.452Z,9.09
2023-04-15T21:06:10.630Z,9.10
2023-04-15T21:08:38.589Z,9.09
2023-04-15T21:11:05.787Z,9.08
2023-04-15T21:13:33.721Z,9.06
2023-04-15T21:16:01.623Z,9.05
2023-04-15T21:18:29.227Z,9.07
2023-04-15T21:21:01.586Z,9.07
2023-04-15T21:23:30.185Z,9.06
2023-04-15T21:25:58.995Z,9.06
2023-04-15T21:28:28.108Z,9.04
2023-04-15T21:30:56.606Z,9.05
2023-04-15T21:33:24.268Z,9.04
2023-04-15T21:35:51.722Z,9.01
2023-04-15T21:38:20.757Z,8.99
2023-04-15T21:40:52.089Z,8.98
2023-04-15T21:43:21.646Z,8.94
2023-04-15T21:46:21.863Z,8.96
2023-04-15T21:48:36.623Z,8.98
2023-04-15T21:51:04.016Z,8.95
2023-04-15T21:53:31.309Z,8.95
2023-04-15T21:55:58.482Z,8.95
2023-04-15T21:58:26.327Z,8.95
2023-04-15T22:01:00.402Z,8.94
2023-04-15T22:03:35.674Z,8.93
2023-04-15T22:06:05.213Z,8.90
2023-04-15T22:08:41.251Z,8.90
2023-04-15T22:11:28.829Z,8.89
2023-04-15T22:13:58.385Z,8.87
2023-04-15T22:16:26.970Z,8.88
2023-04-15T22:18:55.804Z,8.88
2023-04-15T22:21:23.376Z,8.87
2023-04-15T22:23:51.986Z,8.88
2023-04-15T22:26:19.264Z,8.88
2023-04-15T22:28:46.566Z,8.89
2023-04-15T22:31:14.899Z,8.87
2023-04-15T22:33:42.525Z,8.86
2023-04-15T22:36:09.635Z,8.87
2023-04-15T22:38:36.951Z,8.88
2023-04-15T22:41:04.068Z,8.87
2023-04-15T22:43:31.506Z,8.86
2023-04-15T22:45:58.640Z,8.86
2023-04-15T22:48:26.631Z,8.86
2023-04-15T22:50:53.778Z,8.85
2023-04-15T22:53:21.346Z,8.84
2023-04-15T22:55:49.543Z,8.85
2023-04-15T22:58:18.360Z,8.87
2023-04-15T23:00:45.854Z,8.88
2023-04-15T23:03:13.421Z,8.90
2023-04-15T23:05:41.295Z,8.90
2023-04-15T23:08:08.931Z,8.92
2023-04-15T23:10:40.778Z,8.93
2023-04-15T23:13:09.222Z,8.95
2023-04-15T23:15:36.696Z,8.94
2023-04-15T23:18:05.153Z,8.94
2023-04-15T23:20:33.204Z,8.94
2023-04-15T23:23:01.544Z,8.91
2023-04-15T23:25:29.146Z,8.89
2023-04-15T23:27:56.395Z,8.87
2023-04-15T23:30:23.394Z,8.86
2023-04-15T23:32:50.762Z,8.86
2023-04-15T23:35:17.959Z,8.85
2023-04-15T23:37:45.527Z,8.82
2023-04-15T23:40:13.589Z,8.81
2023-04-15T23:42:41.663Z,8.80
2023-04-15T23:45:11.716Z,8.78
2023-04-15T23:47:41.016Z,8.75
2023-04-15T23:50:09.749Z,8.69
2023-04-15T23:52:37.154Z,8.65
2023-04-15T23:55:05.021Z,8.61
2023-04-15T23:57:32.305Z,8.54
